Fahud, Oman
Current Conditions -  °F | °C
As of 6:52 AM on Friday 19 Dec 2014 (Local Time) from EQMN Reporting Station
Clear Clear  
Wind Chill: 59°   Ceiling: Unl
Heat Index: 59°   Visibility: 6mi
Dew Point: 45°   Wind: 3mph
Humidity: 59%   Direction: 240°WSW
Pressure: 30.15"   Gusts: NA
Location:  22.35°N, 56.48°E
Report Text: EQMN 190252Z AUTO 24003KT CAVOK 15/07 Q1021
Loading
Personal Weather Stations






























Interactive Weather Map New forecast layout! Learn more

10-Day Weather Forecast

Advertisements
Track Severe Weather on mobile